createdAt,value
2017-07-10T00:02:27.377Z,4.33
2017-07-10T00:04:55.660Z,3.83
2017-07-10T00:07:23.929Z,4.07
2017-07-10T00:09:52.212Z,5.80
2017-07-10T00:12:20.494Z,5.60
2017-07-10T00:14:48.879Z,4.50
2017-07-10T00:17:17.135Z,4.00
2017-07-10T00:19:45.438Z,4.20
2017-07-10T00:22:13.714Z,4.10
2017-07-10T00:24:42.098Z,4.33
2017-07-10T00:27:10.367Z,4.57
2017-07-10T00:29:38.617Z,3.93
2017-07-10T00:32:06.920Z,5.07
2017-07-10T00:34:35.195Z,6.17
2017-07-10T00:37:03.583Z,5.67
2017-07-10T00:39:31.844Z,4.13
2017-07-10T00:42:00.138Z,5.40
2017-07-10T00:44:28.420Z,5.17
2017-07-10T00:46:56.806Z,3.33
2017-07-10T00:49:25.170Z,4.27
2017-07-10T00:51:53.533Z,3.87
2017-07-10T00:54:21.838Z,4.20
2017-07-10T00:56:50.207Z,4.23
2017-07-10T00:59:18.462Z,4.13
2017-07-10T01:01:46.878Z,4.10
2017-07-10T01:04:15.138Z,4.60
2017-07-10T01:06:43.379Z,3.90
2017-07-10T01:09:11.694Z,4.90
2017-07-10T01:11:40.074Z,4.50
2017-07-10T01:14:08.357Z,5.20
2017-07-10T01:16:36.629Z,7.27
2017-07-10T01:19:04.997Z,4.80
2017-07-10T01:21:33.254Z,4.70
2017-07-10T01:24:01.543Z,6.93
2017-07-10T01:26:29.833Z,3.80
2017-07-10T01:28:58.211Z,4.20
2017-07-10T01:31:26.488Z,5.03
2017-07-10T01:33:54.769Z,5.40
2017-07-10T01:36:23.025Z,4.87
2017-07-10T01:38:51.321Z,4.83
2017-07-10T01:41:19.581Z,4.40
2017-07-10T01:43:47.849Z,4.40
2017-07-10T01:46:16.129Z,5.00
2017-07-10T01:48:44.401Z,4.27
2017-07-10T01:51:12.696Z,4.60
2017-07-10T01:53:40.973Z,4.53
2017-07-10T01:56:09.374Z,4.60
2017-07-10T01:58:37.625Z,4.77
2017-07-10T02:01:05.991Z,5.07
2017-07-10T02:03:34.263Z,4.30
2017-07-10T02:06:02.551Z,5.00
2017-07-10T02:08:30.809Z,5.30
2017-07-10T02:10:59.090Z,5.13
2017-07-10T02:13:27.349Z,4.90
2017-07-10T02:15:55.687Z,9.30
2017-07-10T02:18:23.951Z,6.83
2017-07-10T02:20:52.326Z,7.13
2017-07-10T02:23:20.606Z,6.70
2017-07-10T02:25:48.902Z,5.63
2017-07-10T02:28:17.161Z,4.70
2017-07-10T02:30:45.418Z,4.80
2017-07-10T02:33:13.726Z,5.00
2017-07-10T02:35:41.998Z,5.10
2017-07-10T02:38:10.378Z,6.10
2017-07-10T02:40:38.634Z,6.43
2017-07-10T02:43:06.924Z,7.20
2017-07-10T02:45:35.175Z,5.70
2017-07-10T02:48:03.488Z,5.13
2017-07-10T02:50:31.762Z,5.70
2017-07-10T02:53:00.128Z,6.90
2017-07-10T02:55:28.401Z,5.50
2017-07-10T02:57:56.691Z,5.60
2017-07-10T03:00:24.951Z,5.70
2017-07-10T03:02:53.256Z,6.80
2017-07-10T03:05:21.520Z,6.23
2017-07-10T03:07:49.781Z,5.73
2017-07-10T03:10:18.121Z,5.40
2017-07-10T03:12:46.375Z,6.53
2017-07-10T03:15:15.424Z,6.27
2017-07-10T03:17:43.685Z,6.20
2017-07-10T03:20:11.998Z,6.03
2017-07-10T03:22:40.274Z,6.67
2017-07-10T03:25:08.663Z,5.60
2017-07-10T03:27:36.956Z,5.70
2017-07-10T03:30:06.049Z,5.60
2017-07-10T03:32:35.125Z,5.70
2017-07-10T03:35:03.398Z,6.63
2017-07-10T03:37:31.670Z,5.63
2017-07-10T03:40:00.063Z,6.13
2017-07-10T03:42:28.352Z,5.07
2017-07-10T03:44:56.715Z,6.90
2017-07-10T03:47:24.996Z,8.47
2017-07-10T03:49:53.258Z,5.70
2017-07-10T03:52:21.646Z,6.30
2017-07-10T03:54:49.908Z,7.37
2017-07-10T03:57:18.299Z,4.93
2017-07-10T03:59:46.574Z,5.20
2017-07-10T04:02:14.906Z,5.83
2017-07-10T04:04:43.176Z,5.50
2017-07-10T04:07:11.458Z,7.17
2017-07-10T04:09:39.713Z,6.23
2017-07-10T04:12:08.756Z,5.73
2017-07-10T04:14:37.029Z,5.70
2017-07-10T04:17:05.300Z,5.30
2017-07-10T04:19:33.594Z,5.70
2017-07-10T04:22:01.878Z,8.50
2017-07-10T04:24:30.981Z,6.17
2017-07-10T04:26:59.260Z,7.63
2017-07-10T04:29:27.530Z,6.93
2017-07-10T04:31:55.797Z,5.90
2017-07-10T04:34:24.085Z,6.20
2017-07-10T04:36:52.381Z,6.30
2017-07-10T04:39:20.639Z,6.33
2017-07-10T04:41:48.921Z,8.80
2017-07-10T04:44:17.302Z,7.20
2017-07-10T04:46:45.579Z,6.33
2017-07-10T04:49:13.958Z,6.50
2017-07-10T04:51:42.236Z,6.13
2017-07-10T04:54:10.612Z,6.87
2017-07-10T04:56:38.880Z,6.00
2017-07-10T04:59:07.291Z,6.33
2017-07-10T05:01:35.659Z,5.80
2017-07-10T05:04:03.933Z,10.20
2017-07-10T05:06:32.221Z,6.53
2017-07-10T05:09:00.490Z,6.63
2017-07-10T05:11:28.861Z,7.53
2017-07-10T05:13:57.126Z,6.30
2017-07-10T05:16:25.530Z,5.90
2017-07-10T05:18:53.894Z,6.20
2017-07-10T05:21:22.273Z,6.47
2017-07-10T05:23:50.524Z,5.70
2017-07-10T05:26:18.820Z,6.40
2017-07-10T05:28:47.084Z,6.73
2017-07-10T05:31:15.382Z,6.83
2017-07-10T05:33:43.664Z,6.83
2017-07-10T05:36:12.019Z,6.17
2017-07-10T05:38:40.301Z,9.10
2017-07-10T05:41:08.701Z,8.17
2017-07-10T05:43:36.972Z,6.40
2017-07-10T05:46:05.215Z,8.87
2017-07-10T05:48:33.489Z,8.23
2017-07-10T05:51:01.758Z,7.20
2017-07-10T05:53:30.034Z,6.93
2017-07-10T05:55:58.302Z,7.10
2017-07-10T05:58:26.582Z,6.60
2017-07-10T06:00:54.832Z,8.93
2017-07-10T06:03:23.948Z,5.90
2017-07-10T06:05:52.987Z,6.60
2017-07-10T06:08:21.277Z,7.50
2017-07-10T06:10:49.544Z,7.50
2017-07-10T06:13:18.840Z,7.80
2017-07-10T06:15:47.114Z,7.10
2017-07-10T06:18:15.449Z,7.67
2017-07-10T06:20:43.725Z,8.27
2017-07-10T06:23:12.021Z,8.23
2017-07-10T06:25:41.056Z,7.83
2017-07-10T06:28:09.372Z,7.67
2017-07-10T06:30:37.746Z,7.87
2017-07-10T06:33:06.013Z,7.50
2017-07-10T06:35:34.308Z,7.93
2017-07-10T06:38:02.567Z,8.67
2017-07-10T06:40:30.859Z,7.30
2017-07-10T06:42:59.139Z,10.40
2017-07-10T06:45:27.511Z,8.83
2017-07-10T06:47:55.787Z,8.20
2017-07-10T06:50:24.060Z,13.67
2017-07-10T06:52:52.454Z,10.00
2017-07-10T06:55:20.746Z,8.00
2017-07-10T06:57:49.770Z,8.63
2017-07-10T07:00:18.153Z,8.60
2017-07-10T07:02:46.459Z,7.87
2017-07-10T07:05:14.853Z,8.90
2017-07-10T07:07:43.119Z,11.27
2017-07-10T07:10:11.383Z,9.00
2017-07-10T07:12:39.666Z,8.67
2017-07-10T07:15:07.959Z,9.80
2017-07-10T07:17:36.344Z,8.70
2017-07-10T07:20:04.725Z,10.70
2017-07-10T07:22:33.086Z,9.83
2017-07-10T07:25:01.378Z,11.10
2017-07-10T07:27:29.749Z,11.77
2017-07-10T07:29:58.063Z,9.30
2017-07-10T07:32:27.124Z,26.27
2017-07-10T07:34:55.407Z,11.00
2017-07-10T07:37:24.661Z,10.37
2017-07-10T07:39:52.989Z,9.50
2017-07-10T07:42:21.310Z,9.80
2017-07-10T07:44:49.587Z,9.77
2017-07-10T07:47:17.866Z,12.60
2017-07-10T07:49:46.182Z,9.23
2017-07-10T07:52:14.474Z,11.03
2017-07-10T07:54:42.789Z,9.80
2017-07-10T07:57:11.134Z,13.20
2017-07-10T07:59:39.417Z,11.37
2017-07-10T08:02:07.709Z,11.20
2017-07-10T08:04:36.798Z,10.00
2017-07-10T08:07:05.875Z,10.10
2017-07-10T08:09:34.255Z,10.47
2017-07-10T08:12:02.657Z,11.03
2017-07-10T08:14:31.728Z,14.50
2017-07-10T08:17:00.055Z,20.20
2017-07-10T08:19:28.375Z,23.07
2017-07-10T08:21:56.656Z,19.80
2017-07-10T08:24:24.957Z,51.43
2017-07-10T08:26:53.292Z,16.13
2017-07-10T08:29:21.602Z,19.80
2017-07-10T08:31:49.888Z,11.70
2017-07-10T08:34:18.946Z,11.50
2017-07-10T08:36:47.268Z,10.70
2017-07-10T08:39:16.300Z,11.13
2017-07-10T08:41:44.593Z,12.50
2017-07-10T08:44:13.668Z,12.37
2017-07-10T08:46:41.929Z,13.13
2017-07-10T08:49:10.258Z,13.50
2017-07-10T08:51:38.524Z,13.13
2017-07-10T08:54:06.815Z,13.13
2017-07-10T08:56:35.139Z,17.93
2017-07-10T08:59:03.521Z,19.13
2017-07-10T09:01:31.819Z,18.30
2017-07-10T09:04:00.861Z,14.40
2017-07-10T09:06:29.163Z,14.67
2017-07-10T09:08:57.436Z,15.60
2017-07-10T09:11:25.837Z,15.27
2017-07-10T09:13:54.113Z,20.17
2017-07-10T09:16:22.388Z,17.07
2017-07-10T09:18:50.704Z,19.30
2017-07-10T09:21:19.014Z,20.67
2017-07-10T09:23:47.325Z,21.47
2017-07-10T09:26:16.365Z,22.70
2017-07-10T09:28:44.770Z,24.03
2017-07-10T09:31:13.128Z,25.20
2017-07-10T09:33:41.416Z,27.93
2017-07-10T09:36:09.795Z,24.43
2017-07-10T09:38:38.061Z,24.97
2017-07-10T09:41:06.444Z,24.13
2017-07-10T09:43:34.733Z,24.83
2017-07-10T09:46:03.015Z,25.43
2017-07-10T09:48:31.389Z,25.67
2017-07-10T09:50:59.661Z,28.13
2017-07-10T09:53:27.994Z,27.50
2017-07-10T09:55:56.326Z,23.40
2017-07-10T09:58:24.616Z,23.30
2017-07-10T10:00:53.689Z,23.87
2017-07-10T10:03:21.965Z,24.50
2017-07-10T10:05:50.260Z,24.63
2017-07-10T10:08:18.537Z,22.10
2017-07-10T10:10:47.716Z,26.40
2017-07-10T10:13:16.029Z,25.30
2017-07-10T10:15:45.071Z,28.20
2017-07-10T10:18:13.506Z,27.03
2017-07-10T10:20:42.532Z,27.57
2017-07-10T10:23:10.858Z,24.60
2017-07-10T10:25:39.125Z,25.33
2017-07-10T10:28:07.418Z,26.90
2017-07-10T10:30:36.501Z,25.40
2017-07-10T10:33:04.766Z,24.93
2017-07-10T10:35:33.093Z,28.37
2017-07-10T10:38:01.394Z,26.27
2017-07-10T10:40:29.666Z,28.57
2017-07-10T10:42:57.974Z,27.67
2017-07-10T10:45:27.035Z,26.17
2017-07-10T10:47:55.414Z,32.10
2017-07-10T10:50:23.801Z,24.20
2017-07-10T10:52:52.083Z,26.37
2017-07-10T10:55:20.359Z,25.97
2017-07-10T10:57:48.678Z,25.90
2017-07-10T11:00:16.993Z,24.70
2017-07-10T11:02:45.409Z,25.33
2017-07-10T11:05:13.788Z,25.43
2017-07-10T11:07:42.078Z,25.77
2017-07-10T11:10:10.432Z,25.67
2017-07-10T11:12:38.847Z,25.07
2017-07-10T11:15:07.904Z,26.53
2017-07-10T11:17:36.199Z,29.20
2017-07-10T11:20:04.503Z,26.13
2017-07-10T11:22:32.795Z,24.97
2017-07-10T11:25:01.070Z,27.60
2017-07-10T11:27:29.364Z,25.80
2017-07-10T11:29:57.649Z,25.60
2017-07-10T11:32:26.061Z,26.47
2017-07-10T11:34:54.348Z,23.73
2017-07-10T11:37:22.641Z,24.97
2017-07-10T11:39:50.991Z,27.10
2017-07-10T11:42:19.279Z,27.13
2017-07-10T11:44:48.357Z,27.20
2017-07-10T11:47:16.729Z,27.80
2017-07-10T11:49:45.057Z,29.57
2017-07-10T11:52:13.328Z,30.73
2017-07-10T11:54:41.691Z,28.47
2017-07-10T11:57:10.782Z,30.70
2017-07-10T11:59:39.149Z,43.77
2017-07-10T12:02:07.418Z,31.90
2017-07-10T12:04:35.802Z,33.00
2017-07-10T12:07:04.081Z,32.97
2017-07-10T12:09:32.561Z,30.10
2017-07-10T12:12:00.940Z,32.47
2017-07-10T12:14:29.321Z,32.40
2017-07-10T12:16:57.613Z,33.23
2017-07-10T12:19:25.981Z,33.00
2017-07-10T12:21:54.371Z,34.90
2017-07-10T12:24:22.670Z,33.60
2017-07-10T12:26:50.960Z,33.63
2017-07-10T12:29:19.307Z,29.70
2017-07-10T12:31:48.341Z,32.37
2017-07-10T12:34:16.646Z,35.03
2017-07-10T12:36:44.919Z,35.33
2017-07-10T12:39:13.230Z,58.47
2017-07-10T12:41:41.619Z,44.30
2017-07-10T12:44:09.975Z,37.37
2017-07-10T12:46:38.357Z,36.13
2017-07-10T12:49:06.618Z,37.07
2017-07-10T12:51:34.915Z,35.23
2017-07-10T12:54:03.182Z,36.70
2017-07-10T12:56:31.598Z,36.40
2017-07-10T12:59:00.684Z,36.03
2017-07-10T13:01:29.003Z,36.73
2017-07-10T13:03:57.296Z,34.80
2017-07-10T13:06:25.562Z,35.17
2017-07-10T13:08:53.863Z,38.67
2017-07-10T13:11:22.138Z,36.30
2017-07-10T13:13:50.437Z,38.10
2017-07-10T13:16:18.714Z,37.17
2017-07-10T13:18:47.081Z,39.67
2017-07-10T13:21:15.348Z,41.83
2017-07-10T13:26:18.993Z,41.37
2017-07-10T13:28:48.027Z,41.73
2017-07-10T13:31:16.448Z,40.90
2017-07-10T13:33:44.717Z,43.60
2017-07-10T13:36:13.012Z,42.83
2017-07-10T13:38:41.298Z,45.07
2017-07-10T13:41:10.377Z,43.17
2017-07-10T13:43:38.636Z,42.40
2017-07-10T13:46:06.959Z,41.33
2017-07-10T13:48:36.048Z,52.13
2017-07-10T13:51:05.123Z,47.40
2017-07-10T13:53:33.420Z,40.43
2017-07-10T13:56:02.490Z,42.40
2017-07-10T13:58:30.877Z,42.27
2017-07-10T14:00:59.262Z,42.30
2017-07-10T14:03:27.533Z,40.13
2017-07-10T14:05:55.825Z,41.70
2017-07-10T14:08:24.883Z,40.93
2017-07-10T14:10:53.290Z,38.80
2017-07-10T14:13:21.573Z,39.60
2017-07-10T14:15:49.942Z,39.70
2017-07-10T14:18:18.319Z,38.27
2017-07-10T14:20:46.568Z,38.33
2017-07-10T14:23:14.882Z,37.93
2017-07-10T14:25:43.168Z,33.93
2017-07-10T14:28:12.263Z,35.77
2017-07-10T14:30:41.309Z,36.63
2017-07-10T14:33:09.725Z,33.80
2017-07-10T14:35:37.990Z,33.47
2017-07-10T14:38:06.272Z,31.93
2017-07-10T14:40:34.658Z,32.37
2017-07-10T14:43:02.965Z,31.43
2017-07-10T14:45:32.045Z,32.20
2017-07-10T14:48:00.315Z,41.57
2017-07-10T14:50:28.696Z,31.47
2017-07-10T14:52:56.975Z,30.23
2017-07-10T14:55:25.265Z,27.93
2017-07-10T14:57:54.331Z,29.67
2017-07-10T15:00:22.597Z,27.90
2017-07-10T15:02:50.900Z,27.57
2017-07-10T15:05:19.182Z,26.73
2017-07-10T15:07:47.502Z,25.20
2017-07-10T15:10:15.846Z,26.20
2017-07-10T15:12:44.130Z,24.63
2017-07-10T15:15:13.207Z,24.23
2017-07-10T15:17:41.607Z,42.53
2017-07-10T15:20:10.666Z,23.00
2017-07-10T15:22:38.939Z,22.50
2017-07-10T15:25:07.238Z,24.53
2017-07-10T15:27:35.627Z,32.70
2017-07-10T15:30:03.899Z,49.70
2017-07-10T15:32:32.221Z,30.63
2017-07-10T15:35:00.554Z,29.87
2017-07-10T15:37:28.938Z,25.10
2017-07-10T15:39:57.219Z,24.20
2017-07-10T15:42:26.294Z,25.00
2017-07-10T15:44:54.607Z,25.37
2017-07-10T15:47:23.696Z,27.73
2017-07-10T15:49:52.868Z,32.57
2017-07-10T15:52:21.253Z,32.60
2017-07-10T15:54:49.544Z,26.63
2017-07-10T15:57:17.904Z,27.80
2017-07-10T15:59:46.290Z,26.30
2017-07-10T16:02:14.588Z,27.00
2017-07-10T16:04:43.670Z,25.80
2017-07-10T16:07:12.026Z,27.97
2017-07-10T16:09:40.296Z,28.30
2017-07-10T16:12:08.599Z,37.00
2017-07-10T16:14:36.862Z,47.27
2017-07-10T16:17:05.246Z,36.03
2017-07-10T16:19:33.634Z,28.20
2017-07-10T16:22:01.952Z,27.60
2017-07-10T16:24:30.255Z,25.93
2017-07-10T16:26:58.765Z,32.87
2017-07-10T16:29:27.030Z,32.03
2017-07-10T16:31:55.317Z,29.73
2017-07-10T16:34:23.717Z,49.43
2017-07-10T16:36:52.762Z,48.73
2017-07-10T16:39:21.056Z,31.67
2017-07-10T16:41:49.355Z,29.60
2017-07-10T16:44:17.641Z,28.63
2017-07-10T16:46:46.705Z,27.30
2017-07-10T16:49:15.090Z,40.37
2017-07-10T16:51:43.466Z,36.80
2017-07-10T16:54:11.841Z,36.50
2017-07-10T16:56:40.135Z,27.53
2017-07-10T16:59:09.182Z,25.08
2017-07-10T17:01:37.487Z,23.00
2017-07-10T17:04:05.748Z,25.00
2017-07-10T17:06:34.147Z,24.17
2017-07-10T17:09:02.415Z,24.10
2017-07-10T17:11:30.746Z,23.70
2017-07-10T17:13:59.027Z,27.87
2017-07-10T17:16:27.314Z,26.37
2017-07-10T17:18:55.701Z,23.63
2017-07-10T17:21:23.982Z,22.40
2017-07-10T17:23:53.050Z,22.23
2017-07-10T17:26:21.345Z,22.73
2017-07-10T17:28:49.614Z,21.77
2017-07-10T17:31:17.882Z,22.10
2017-07-10T17:33:46.186Z,22.10
2017-07-10T17:36:15.229Z,22.00
2017-07-10T17:38:43.518Z,21.87
2017-07-10T17:41:11.939Z,21.23
2017-07-10T17:43:40.977Z,22.73
2017-07-10T17:46:09.389Z,22.27
2017-07-10T17:48:37.776Z,21.10
2017-07-10T17:51:06.093Z,21.10
2017-07-10T17:53:34.370Z,20.27
2017-07-10T17:56:02.809Z,20.93
2017-07-10T17:58:31.197Z,21.17
2017-07-10T18:00:59.462Z,20.93
2017-07-10T18:03:27.838Z,24.27
2017-07-10T18:05:56.137Z,23.60
2017-07-10T18:08:25.221Z,22.97
2017-07-10T18:10:53.490Z,23.87
2017-07-10T18:13:21.877Z,21.50
2017-07-10T18:15:50.155Z,24.73
2017-07-10T18:18:18.431Z,23.37
2017-07-10T18:20:46.720Z,24.77
2017-07-10T18:23:15.003Z,23.77
2017-07-10T18:25:43.327Z,26.37
2017-07-10T18:28:12.391Z,24.37
2017-07-10T18:30:40.677Z,23.97
2017-07-10T18:33:08.972Z,25.57
2017-07-10T18:35:38.153Z,26.60
2017-07-10T18:38:06.516Z,27.13
2017-07-10T18:40:34.892Z,24.83
2017-07-10T18:43:03.179Z,25.97
2017-07-10T18:45:31.553Z,28.00
2017-07-10T18:47:59.928Z,28.00
2017-07-10T18:50:28.320Z,27.47
2017-07-10T18:52:56.706Z,28.40
2017-07-10T18:55:24.989Z,30.00
2017-07-10T18:57:53.278Z,30.17
2017-07-10T19:00:22.323Z,31.43
2017-07-10T19:02:50.720Z,31.37
2017-07-10T19:05:18.990Z,50.07
2017-07-10T19:07:47.404Z,33.03
2017-07-10T19:10:16.454Z,33.20
2017-07-10T19:12:44.868Z,32.80
2017-07-10T19:15:13.273Z,35.90
2017-07-10T19:17:42.447Z,52.37
2017-07-10T19:20:10.763Z,45.63
2017-07-10T19:22:39.057Z,32.43
2017-07-10T19:25:07.343Z,33.50
2017-07-10T19:27:35.618Z,32.10
2017-07-10T19:30:04.019Z,32.80
2017-07-10T19:32:32.297Z,34.20
2017-07-10T19:35:00.675Z,33.23
2017-07-10T19:37:28.954Z,33.17
2017-07-10T19:39:57.245Z,35.13
2017-07-10T19:42:25.538Z,43.53
2017-07-10T19:44:54.608Z,40.27
2017-07-10T19:47:22.881Z,37.70
2017-07-10T19:49:51.262Z,36.50
2017-07-10T19:52:19.533Z,33.17
2017-07-10T19:54:48.633Z,36.37
2017-07-10T19:57:16.936Z,36.60
2017-07-10T19:59:45.991Z,41.17
2017-07-10T20:02:14.281Z,35.80
2017-07-10T20:04:42.579Z,35.03
2017-07-10T20:07:11.617Z,38.60
2017-07-10T20:09:40.014Z,35.67
2017-07-10T20:12:08.317Z,36.37
2017-07-10T20:14:36.627Z,35.37
2017-07-10T20:17:05.653Z,38.07
2017-07-10T20:19:33.959Z,50.47
2017-07-10T20:22:02.347Z,77.30
2017-07-10T20:24:30.640Z,54.00
2017-07-10T20:26:59.688Z,45.20
2017-07-10T20:29:27.996Z,40.77
2017-07-10T20:31:56.266Z,44.70
2017-07-10T20:34:24.669Z,43.03
2017-07-10T20:36:52.962Z,45.23
2017-07-10T20:39:21.276Z,44.83
2017-07-10T20:41:49.553Z,45.93
2017-07-10T20:44:17.901Z,48.23
2017-07-10T20:46:46.188Z,46.90
2017-07-10T20:49:15.264Z,44.13
2017-07-10T20:51:43.559Z,42.70
2017-07-10T20:54:12.612Z,41.77
2017-07-10T20:56:40.902Z,39.43
2017-07-10T20:59:09.168Z,55.60
2017-07-10T21:01:37.470Z,40.27
2017-07-10T21:04:06.535Z,33.37
2017-07-10T21:06:34.930Z,33.60
2017-07-10T21:09:03.985Z,34.47
2017-07-10T21:11:32.240Z,34.80
2017-07-10T21:14:00.614Z,33.83
2017-07-10T21:16:28.876Z,35.73
2017-07-10T21:18:57.318Z,33.57
2017-07-10T21:21:25.581Z,32.67
2017-07-10T21:23:53.946Z,32.07
2017-07-10T21:26:22.258Z,29.10
2017-07-10T21:28:50.532Z,31.53
2017-07-10T21:31:18.854Z,30.40
2017-07-10T21:33:47.189Z,25.77
2017-07-10T21:36:15.562Z,23.70
2017-07-10T21:38:43.963Z,21.20
2017-07-10T21:41:12.326Z,19.80
2017-07-10T21:43:40.592Z,18.23
2017-07-10T21:46:08.865Z,29.80
2017-07-10T21:48:37.237Z,23.83
2017-07-10T21:51:05.513Z,21.77
2017-07-10T21:53:33.899Z,23.57
2017-07-10T21:56:02.173Z,23.90
2017-07-10T21:58:30.501Z,27.23
2017-07-10T22:00:58.783Z,25.20
2017-07-10T22:03:27.060Z,25.00
2017-07-10T22:05:55.368Z,26.23
2017-07-10T22:08:23.659Z,29.70
2017-07-10T22:10:52.040Z,38.17
2017-07-10T22:13:20.318Z,29.80
2017-07-10T22:15:48.598Z,30.27
2017-07-10T22:18:16.889Z,30.73
2017-07-10T22:20:45.970Z,31.80
2017-07-10T22:23:14.450Z,31.40
2017-07-10T22:25:42.719Z,31.63
2017-07-10T22:28:11.023Z,29.00
2017-07-10T22:30:40.102Z,27.90
2017-07-10T22:33:08.371Z,24.00
2017-07-10T22:35:36.663Z,23.47
2017-07-10T22:38:05.750Z,26.53
2017-07-10T22:40:34.135Z,23.43
2017-07-10T22:43:02.502Z,25.37
2017-07-10T22:45:30.824Z,24.17
2017-07-10T22:47:59.111Z,21.53
2017-07-10T22:50:27.388Z,24.17
2017-07-10T22:52:55.674Z,20.90
2017-07-10T22:55:23.933Z,23.00
2017-07-10T22:57:52.266Z,21.67
2017-07-10T23:00:20.648Z,21.83
2017-07-10T23:02:48.957Z,22.33
2017-07-10T23:05:18.003Z,23.63
2017-07-10T23:07:46.310Z,21.50
2017-07-10T23:10:14.597Z,20.90
2017-07-10T23:12:43.645Z,22.57
2017-07-10T23:15:11.948Z,20.60
2017-07-10T23:17:40.251Z,20.20
2017-07-10T23:20:09.322Z,21.53
2017-07-10T23:22:37.596Z,21.53
2017-07-10T23:25:05.977Z,20.73
2017-07-10T23:27:34.261Z,22.93
2017-07-10T23:30:02.634Z,22.87
2017-07-10T23:32:31.013Z,21.67
2017-07-10T23:34:59.411Z,22.33
2017-07-10T23:37:28.605Z,21.73
2017-07-10T23:39:57.688Z,20.20
2017-07-10T23:42:25.974Z,23.40
2017-07-10T23:44:54.261Z,20.10
2017-07-10T23:47:23.332Z,20.67
2017-07-10T23:49:51.722Z,23.13
2017-07-10T23:52:20.104Z,18.57
2017-07-10T23:54:48.425Z,20.80
2017-07-10T23:57:16.700Z,20.07
2017-07-10T23:59:44.981Z,17.93
